createdAt,value
2023-04-11T00:00:59.573Z,5.87
2023-04-11T00:03:29.025Z,5.47
2023-04-11T00:05:57.087Z,5.80
2023-04-11T00:08:25.498Z,5.90
2023-04-11T00:10:54.856Z,6.13
2023-04-11T00:13:23.797Z,5.77
2023-04-11T00:15:55.117Z,5.63
2023-04-11T00:18:25.409Z,6.20
2023-04-11T00:20:53.696Z,5.70
2023-04-11T00:23:21.689Z,5.73
2023-04-11T00:25:49.544Z,6.03
2023-04-11T00:28:18.751Z,6.10
2023-04-11T00:30:46.962Z,6.40
2023-04-11T00:33:14.885Z,7.07
2023-04-11T00:35:43.520Z,7.73
2023-04-11T00:38:11.487Z,5.77
2023-04-11T00:40:39.413Z,7.63
2023-04-11T00:43:07.800Z,6.57
2023-04-11T00:45:37.956Z,8.10
2023-04-11T00:48:06.760Z,6.00
2023-04-11T00:50:34.744Z,6.33
2023-04-11T00:53:02.664Z,6.67
2023-04-11T00:55:31.084Z,6.73
2023-04-11T00:57:59.671Z,7.53
2023-04-11T01:00:29.298Z,8.03
2023-04-11T01:02:59.944Z,6.53
2023-04-11T01:05:34.210Z,7.23
2023-04-11T01:08:04.153Z,7.53
2023-04-11T01:10:33.255Z,6.17
2023-04-11T01:13:02.342Z,6.30
2023-04-11T01:15:30.899Z,6.93
2023-04-11T01:18:02.173Z,6.30
2023-04-11T01:20:31.726Z,8.20
2023-04-11T01:23:02.627Z,5.37
2023-04-11T01:25:31.925Z,6.33
2023-04-11T01:28:00.053Z,5.93
2023-04-11T01:30:28.206Z,5.53
2023-04-11T01:32:56.550Z,6.80
2023-04-11T01:35:24.886Z,6.70
2023-04-11T01:37:53.318Z,6.00
2023-04-11T01:40:23.913Z,5.80
2023-04-11T01:42:55.247Z,6.43
2023-04-11T01:45:27.896Z,6.67
2023-04-11T01:47:56.999Z,6.37
2023-04-11T01:50:25.775Z,6.07
2023-04-11T01:52:54.056Z,5.27
2023-04-11T01:55:22.153Z,5.83
2023-04-11T01:57:50.352Z,5.80
2023-04-11T02:00:21.193Z,6.27
2023-04-11T02:02:49.484Z,7.77
2023-04-11T02:05:17.529Z,7.03
2023-04-11T02:07:45.726Z,5.67
2023-04-11T02:10:18.961Z,4.97
2023-04-11T02:12:46.937Z,8.33
2023-04-11T02:15:14.834Z,5.23
2023-04-11T02:17:45.400Z,5.63
2023-04-11T02:20:15.248Z,5.60
2023-04-11T02:22:43.120Z,4.60
2023-04-11T02:25:11.183Z,5.30
2023-04-11T02:27:39.091Z,4.17
2023-04-11T02:30:08.508Z,4.93
2023-04-11T02:32:39.064Z,4.90
2023-04-11T02:35:10.647Z,3.80
2023-04-11T02:37:41.200Z,3.87
2023-04-11T02:40:10.656Z,6.00
2023-04-11T02:42:42.891Z,7.70
2023-04-11T02:45:12.296Z,4.00
2023-04-11T02:47:41.192Z,4.73
2023-04-11T02:50:12.140Z,5.93
2023-04-11T02:52:47.778Z,3.80
2023-04-11T02:55:17.077Z,3.10
2023-04-11T02:57:45.062Z,2.63
2023-04-11T03:00:16.633Z,2.30
2023-04-11T03:02:57.422Z,2.20
2023-04-11T03:05:27.798Z,2.50
2023-04-11T03:07:57.696Z,2.97
2023-04-11T03:10:26.517Z,4.27
2023-04-11T03:12:55.116Z,2.73
2023-04-11T03:15:23.180Z,2.37
2023-04-11T03:17:51.053Z,2.70
2023-04-11T03:20:20.192Z,2.03
2023-04-11T03:22:55.350Z,2.07
2023-04-11T03:25:24.210Z,1.90
2023-04-11T03:27:53.084Z,1.83
2023-04-11T03:30:21.285Z,2.67
2023-04-11T03:32:49.484Z,1.80
2023-04-11T03:35:20.366Z,1.93
2023-04-11T03:37:50.192Z,2.40
2023-04-11T03:40:19.658Z,1.40
2023-04-11T03:42:53.439Z,1.63
2023-04-11T03:45:26.545Z,1.57
2023-04-11T03:47:56.108Z,2.13
2023-04-11T03:50:29.027Z,1.80
2023-04-11T03:53:01.402Z,1.60
2023-04-11T03:55:32.742Z,2.70
2023-04-11T03:58:02.923Z,2.73
2023-04-11T04:00:32.212Z,1.97
2023-04-11T04:03:06.955Z,2.67
2023-04-11T04:05:35.132Z,2.77
2023-04-11T04:08:03.715Z,1.37
2023-04-11T04:11:01.961Z,2.13
2023-04-11T04:13:32.427Z,3.20
2023-04-11T04:16:17.561Z,1.70
2023-04-11T04:18:51.143Z,1.30
2023-04-11T04:21:20.913Z,2.07
2023-04-11T04:23:49.254Z,2.53
2023-04-11T04:26:29.974Z,4.70
2023-04-11T04:29:10.037Z,1.73
2023-04-11T04:31:53.069Z,3.90
2023-04-11T04:34:29.063Z,1.80
2023-04-11T04:36:59.392Z,1.60
2023-04-11T04:39:38.099Z,2.40
2023-04-11T04:42:08.533Z,1.90
2023-04-11T04:44:40.363Z,1.80
2023-04-11T04:47:17.244Z,2.83
2023-04-11T04:49:45.689Z,1.43
2023-04-11T04:52:14.775Z,2.00
2023-04-11T04:54:43.135Z,1.97
2023-04-11T04:57:12.559Z,2.60
2023-04-11T04:59:40.600Z,2.30
2023-04-11T05:02:12.740Z,1.70
2023-04-11T05:04:42.044Z,3.00
2023-04-11T05:07:11.117Z,1.67
2023-04-11T05:09:39.142Z,4.03
2023-04-11T05:12:26.955Z,2.40
2023-04-11T05:14:59.186Z,1.83
2023-04-11T05:17:31.117Z,2.27
2023-04-11T05:19:59.342Z,2.97
2023-04-11T05:22:28.214Z,2.03
2023-04-11T05:24:57.898Z,2.67
2023-04-11T05:27:27.293Z,3.33
2023-04-11T05:29:55.823Z,4.57
2023-04-11T05:32:23.931Z,3.27
2023-04-11T05:34:56.532Z,3.17
2023-04-11T05:37:42.069Z,4.20
2023-04-11T05:40:11.524Z,3.77
2023-04-11T05:42:41.141Z,4.07
2023-04-11T05:45:11.314Z,2.97
2023-04-11T05:47:39.355Z,5.67
2023-04-11T05:50:08.825Z,5.03
2023-04-11T05:52:37.545Z,3.87
2023-04-11T05:55:06.656Z,3.33
2023-04-11T05:57:34.703Z,4.70
2023-04-11T06:00:12.564Z,3.67
2023-04-11T06:02:41.098Z,4.73
2023-04-11T06:05:11.596Z,4.87
2023-04-11T06:07:40.335Z,3.33
2023-04-11T06:10:10.360Z,5.00
2023-04-11T06:12:38.248Z,3.97
2023-04-11T06:15:09.663Z,6.43
2023-04-11T06:17:38.249Z,5.53
2023-04-11T06:20:08.488Z,3.63
2023-04-11T06:22:36.396Z,2.60
2023-04-11T06:25:04.994Z,3.73
2023-04-11T06:27:32.921Z,3.17
2023-04-11T06:30:00.954Z,3.63
2023-04-11T06:32:30.509Z,5.27
2023-04-11T06:34:58.476Z,1.97
2023-04-11T06:37:27.105Z,3.07
2023-04-11T06:39:55.311Z,4.33
2023-04-11T06:42:23.322Z,1.43
2023-04-11T06:44:53.280Z,3.57
2023-04-11T06:47:21.273Z,2.10
2023-04-11T06:49:50.517Z,3.03
2023-04-11T06:52:18.867Z,3.87
2023-04-11T06:54:48.759Z,4.10
2023-04-11T06:57:17.841Z,1.93
2023-04-11T06:59:45.767Z,3.40
2023-04-11T07:02:13.780Z,4.20
2023-04-11T07:04:42.708Z,4.30
2023-04-11T07:07:12.067Z,6.23
2023-04-11T07:09:39.971Z,6.70
2023-04-11T07:12:08.053Z,6.50
2023-04-11T07:14:35.923Z,6.43
2023-04-11T07:17:03.788Z,5.67
2023-04-11T07:19:31.664Z,4.50
2023-04-11T07:22:00.362Z,4.37
2023-04-11T07:24:30.494Z,3.63
2023-04-11T07:27:01.562Z,4.17
2023-04-11T07:29:29.646Z,5.40
2023-04-11T07:31:58.025Z,9.27
2023-04-11T07:34:26.312Z,6.80
2023-04-11T07:36:57.790Z,5.40
2023-04-11T07:39:27.070Z,6.33
2023-04-11T07:41:56.764Z,6.33
2023-04-11T07:44:24.727Z,6.73
2023-04-11T07:46:52.580Z,5.27
2023-04-11T07:49:20.466Z,5.67
2023-04-11T07:51:48.488Z,5.73
2023-04-11T07:54:16.627Z,4.43
2023-04-11T07:56:44.787Z,2.97
2023-04-11T07:59:15.857Z,2.53
2023-04-11T08:01:43.911Z,3.00
2023-04-11T08:04:12.157Z,6.20
2023-04-11T08:06:40.633Z,3.93
2023-04-11T08:09:08.839Z,6.03
2023-04-11T08:11:36.734Z,4.60
2023-04-11T08:14:04.680Z,6.07
2023-04-11T08:16:35.482Z,6.47
2023-04-11T08:19:03.417Z,3.50
2023-04-11T08:21:31.929Z,1.97
2023-04-11T08:24:00.099Z,1.43
2023-04-11T08:26:28.075Z,1.13
2023-04-11T08:28:56.002Z,1.70
2023-04-11T08:31:24.221Z,0.73
2023-04-11T08:33:53.957Z,1.30
2023-04-11T08:36:22.209Z,1.87
2023-04-11T08:38:50.094Z,1.33
2023-04-11T08:41:17.991Z,4.70
2023-04-11T08:43:46.943Z,3.07
2023-04-11T08:46:14.912Z,1.90
2023-04-11T08:48:42.893Z,1.37
2023-04-11T08:51:12.666Z,3.40
2023-04-11T08:53:42.370Z,2.03
2023-04-11T08:56:16.730Z,1.83
2023-04-11T08:58:44.896Z,2.03
2023-04-11T09:01:32.163Z,2.03
2023-04-11T09:04:02.399Z,1.57
2023-04-11T09:06:33.681Z,0.97
2023-04-11T09:09:06.444Z,2.37
2023-04-11T09:11:53.288Z,0.50
2023-04-11T09:14:26.747Z,0.30
2023-04-11T09:16:58.243Z,1.10
2023-04-11T09:19:27.845Z,1.33
2023-04-11T09:22:00.557Z,1.00
2023-04-11T09:24:29.749Z,1.00
2023-04-11T09:27:12.852Z,2.93
2023-04-11T09:29:43.136Z,0.40
2023-04-11T09:32:32.158Z,1.10
2023-04-11T09:35:15.673Z,0.90
2023-04-11T09:37:48.076Z,0.83
2023-04-11T09:40:18.316Z,0.67
2023-04-11T09:42:48.813Z,1.17
2023-04-11T09:45:22.587Z,1.00
2023-04-11T09:47:52.867Z,1.40
2023-04-11T09:50:21.421Z,1.40
2023-04-11T09:52:52.778Z,3.27
2023-04-11T09:55:22.693Z,1.83
2023-04-11T09:57:52.935Z,1.27
2023-04-11T10:00:23.169Z,1.90
2023-04-11T10:02:53.833Z,2.80
2023-04-11T10:05:27.318Z,2.50
2023-04-11T10:08:04.684Z,0.90
2023-04-11T10:10:33.557Z,2.83
2023-04-11T10:13:01.408Z,2.87
2023-04-11T10:15:29.998Z,2.87
2023-04-11T10:18:13.770Z,3.00
2023-04-11T10:20:47.215Z,1.63
2023-04-11T10:23:17.103Z,4.57
2023-04-11T10:25:55.109Z,2.03
2023-04-11T10:28:38.832Z,1.97
2023-04-11T10:31:09.916Z,3.50
2023-04-11T10:33:39.150Z,3.53
2023-04-11T10:36:11.015Z,1.90
2023-04-11T10:38:51.233Z,2.53
2023-04-11T10:41:31.601Z,2.73
2023-04-11T10:44:21.701Z,2.27
2023-04-11T10:46:54.043Z,2.80
2023-04-11T10:49:37.456Z,2.17
2023-04-11T10:52:22.861Z,2.93
2023-04-11T10:54:54.764Z,2.77
2023-04-11T10:57:23.613Z,2.43
2023-04-11T11:00:15.887Z,2.90
2023-04-11T11:02:44.129Z,2.97
2023-04-11T11:05:25.319Z,2.30
2023-04-11T11:07:55.360Z,5.20
2023-04-11T11:10:43.509Z,2.90
2023-04-11T11:13:11.686Z,3.50
2023-04-11T11:15:39.828Z,2.47
2023-04-11T11:18:10.994Z,3.80
2023-04-11T11:20:39.107Z,3.07
2023-04-11T11:23:09.659Z,4.13
2023-04-11T11:25:38.662Z,4.23
2023-04-11T11:28:09.981Z,4.73
2023-04-11T11:30:39.710Z,2.37
2023-04-11T11:33:18.558Z,4.03
2023-04-11T11:35:56.475Z,3.13
2023-04-11T11:38:30.892Z,4.80
2023-04-11T11:41:00.315Z,3.07
2023-04-11T11:43:30.276Z,2.33
2023-04-11T11:46:15.797Z,3.97
2023-04-11T11:48:59.507Z,3.57
2023-04-11T11:51:27.998Z,3.87
2023-04-11T11:54:08.497Z,2.20
2023-04-11T11:56:36.951Z,3.43
2023-04-11T11:59:06.693Z,2.90
2023-04-11T12:01:36.518Z,3.67
2023-04-11T12:04:11.161Z,3.60
2023-04-11T12:06:39.472Z,1.97
2023-04-11T12:09:10.648Z,1.80
2023-04-11T12:11:39.750Z,6.43
2023-04-11T12:14:09.756Z,5.23
2023-04-11T12:16:38.727Z,3.73
2023-04-11T12:19:06.855Z,1.87
2023-04-11T12:21:34.773Z,2.30
2023-04-11T12:24:02.698Z,4.07
2023-04-11T12:26:30.575Z,2.50
2023-04-11T12:28:58.671Z,4.23
2023-04-11T12:31:28.094Z,2.47
2023-04-11T12:33:56.499Z,2.53
2023-04-11T12:36:27.617Z,2.80
2023-04-11T12:38:55.834Z,2.23
2023-04-11T12:41:32.099Z,3.90
2023-04-11T12:44:02.369Z,5.50
2023-04-11T12:46:33.569Z,2.90
2023-04-11T12:49:01.659Z,3.33
2023-04-11T12:51:29.553Z,3.27
2023-04-11T12:53:57.437Z,2.10
2023-04-11T12:56:25.315Z,2.53
2023-04-11T12:58:53.336Z,2.33
2023-04-11T13:01:21.410Z,2.37
2023-04-11T13:03:50.804Z,3.13
2023-04-11T13:06:19.044Z,2.53
2023-04-11T13:08:47.036Z,3.63
2023-04-11T13:11:15.011Z,3.23
2023-04-11T13:13:42.899Z,3.13
2023-04-11T13:16:12.436Z,3.07
2023-04-11T13:18:40.947Z,2.97
2023-04-11T13:21:10.769Z,2.97
2023-04-11T13:23:38.960Z,5.37
2023-04-11T13:26:07.639Z,2.50
2023-04-11T13:28:36.398Z,2.77
2023-04-11T13:31:04.332Z,4.30
2023-04-11T13:33:32.435Z,5.87
2023-04-11T13:36:00.523Z,2.77
2023-04-11T13:38:29.889Z,7.17
2023-04-11T13:40:57.742Z,3.40
2023-04-11T13:43:25.688Z,4.07
2023-04-11T13:45:53.598Z,3.87
2023-04-11T13:48:21.464Z,1.87
2023-04-11T13:50:49.439Z,3.57
2023-04-11T13:53:17.416Z,2.33
2023-04-11T13:55:48.981Z,1.53
2023-04-11T13:58:16.850Z,1.23
2023-04-11T14:00:45.687Z,1.60
2023-04-11T14:03:14.082Z,1.30
2023-04-11T14:05:42.398Z,1.23
2023-04-11T14:08:10.603Z,3.00
2023-04-11T14:10:38.529Z,2.40
2023-04-11T14:13:07.754Z,3.57
2023-04-11T14:15:35.692Z,1.67
2023-04-11T14:18:03.686Z,2.27
2023-04-11T14:20:31.839Z,3.20
2023-04-11T14:22:59.854Z,2.40
2023-04-11T14:25:27.734Z,4.70
2023-04-11T14:27:55.619Z,2.43
2023-04-11T14:30:24.870Z,2.57
2023-04-11T14:32:53.142Z,4.57
2023-04-11T14:35:21.504Z,1.90
2023-04-11T14:37:49.463Z,3.03
2023-04-11T14:40:17.650Z,3.43
2023-04-11T14:42:45.898Z,2.80
2023-04-11T14:45:14.105Z,2.77
2023-04-11T14:47:43.824Z,3.10
2023-04-11T14:50:12.240Z,2.10
2023-04-11T14:52:40.128Z,4.57
2023-04-11T14:55:09.767Z,2.93
2023-04-11T14:57:46.510Z,3.00
2023-04-11T15:00:19.668Z,3.20
2023-04-11T15:02:52.202Z,4.20
2023-04-11T15:05:21.086Z,5.00
2023-04-11T15:07:51.723Z,3.13
2023-04-11T15:10:22.272Z,4.77
2023-04-11T15:12:50.647Z,3.97
2023-04-11T15:15:18.692Z,4.13
2023-04-11T15:18:09.447Z,4.07
2023-04-11T15:20:38.812Z,1.70
2023-04-11T15:23:06.797Z,4.33
2023-04-11T15:25:34.698Z,1.00
2023-04-11T15:28:02.577Z,1.63
2023-04-11T15:30:30.487Z,1.23
2023-04-11T15:32:59.735Z,1.83
2023-04-11T15:35:27.654Z,3.63
2023-04-11T15:37:55.990Z,4.27
2023-04-11T15:40:23.979Z,2.83
2023-04-11T15:42:51.932Z,1.60
2023-04-11T15:45:20.014Z,38.20
2023-04-11T15:47:47.946Z,29.10
2023-04-11T15:50:17.561Z,12.47
2023-04-11T15:52:47.686Z,13.30
2023-04-11T15:55:16.194Z,6.07
2023-04-11T15:57:44.301Z,8.00
2023-04-11T16:00:15.484Z,3.33
2023-04-11T16:02:45.827Z,6.33
2023-04-11T16:05:14.351Z,3.60
2023-04-11T16:07:44.060Z,3.30
2023-04-11T16:10:14.857Z,3.57
2023-04-11T16:12:43.219Z,2.03
2023-04-11T16:15:11.439Z,1.77
2023-04-11T16:17:39.444Z,1.70
2023-04-11T16:20:12.078Z,2.40
2023-04-11T16:22:44.019Z,3.43
2023-04-11T16:25:12.554Z,2.47
2023-04-11T16:27:40.544Z,2.07
2023-04-11T16:30:09.616Z,2.30
2023-04-11T16:32:37.905Z,1.60
2023-04-11T16:35:07.119Z,4.37
2023-04-11T16:37:35.119Z,2.67
2023-04-11T16:40:07.336Z,3.90
2023-04-11T16:42:35.306Z,1.90
2023-04-11T16:45:03.286Z,3.17
2023-04-11T16:47:31.388Z,3.90
2023-04-11T16:49:59.468Z,2.27
2023-04-11T16:52:27.450Z,2.70
2023-04-11T16:54:55.614Z,5.37
2023-04-11T16:57:27.480Z,5.97
2023-04-11T16:59:55.865Z,4.27
2023-04-11T17:02:24.267Z,3.53
2023-04-11T17:04:52.362Z,5.60
2023-04-11T17:07:20.580Z,8.27
2023-04-11T17:09:49.759Z,4.90
2023-04-11T17:12:17.923Z,2.83
2023-04-11T17:14:47.596Z,3.80
2023-04-11T17:17:15.483Z,3.80
2023-04-11T17:19:43.384Z,9.20
2023-04-11T17:22:12.829Z,4.70
2023-04-11T17:24:41.626Z,3.03
2023-04-11T17:27:09.960Z,3.43
2023-04-11T17:29:38.226Z,2.93
2023-04-11T17:32:07.498Z,4.83
2023-04-11T17:34:35.979Z,5.97
2023-04-11T17:37:03.894Z,6.57
2023-04-11T17:39:32.128Z,5.63
2023-04-11T17:42:00.052Z,9.60
2023-04-11T17:44:27.950Z,5.10
2023-04-11T17:46:56.267Z,6.20
2023-04-11T17:49:27.223Z,8.17
2023-04-11T17:51:59.181Z,3.70
2023-04-11T17:54:27.782Z,4.07
2023-04-11T17:56:56.231Z,4.40
2023-04-11T17:59:25.356Z,4.33
2023-04-11T18:01:55.834Z,6.03
2023-04-11T18:04:25.383Z,7.07
2023-04-11T18:06:54.962Z,6.30
2023-04-11T18:09:24.016Z,7.53
2023-04-11T18:11:51.905Z,10.50
2023-04-11T18:14:19.807Z,7.13
2023-04-11T18:16:47.887Z,7.23
2023-04-11T18:19:15.882Z,6.27
2023-04-11T18:21:45.076Z,5.90
2023-04-11T18:24:13.051Z,5.10
2023-04-11T18:26:41.021Z,8.00
2023-04-11T18:29:09.030Z,9.13
2023-04-11T18:31:36.971Z,8.00
2023-04-11T18:34:06.885Z,6.73
2023-04-11T18:36:35.778Z,9.87
2023-04-11T18:39:05.329Z,8.50
2023-04-11T18:41:33.216Z,10.60
2023-04-11T18:44:02.381Z,6.63
2023-04-11T18:46:31.310Z,5.00
2023-04-11T18:49:00.014Z,5.80
2023-04-11T18:51:27.921Z,6.00
2023-04-11T18:53:56.141Z,4.17
2023-04-11T18:56:26.671Z,3.50
2023-04-11T18:58:57.720Z,4.77
2023-04-11T19:01:31.759Z,4.93
2023-04-11T19:04:00.164Z,6.60
2023-04-11T19:06:28.609Z,6.10
2023-04-11T19:08:57.636Z,3.97
2023-04-11T19:11:27.197Z,5.57
2023-04-11T19:13:55.161Z,5.07
2023-04-11T19:16:23.199Z,4.60
2023-04-11T19:18:51.139Z,6.90
2023-04-11T19:21:19.058Z,4.20
2023-04-11T19:23:47.745Z,5.43
2023-04-11T19:26:16.189Z,4.77
2023-04-11T19:28:46.005Z,5.60
2023-04-11T19:31:14.015Z,3.00
2023-04-11T19:33:42.033Z,6.87
2023-04-11T19:36:10.173Z,8.53
2023-04-11T19:38:39.602Z,3.07
2023-04-11T19:41:13.960Z,5.67
2023-04-11T19:43:42.672Z,7.23
2023-04-11T19:46:12.688Z,7.70
2023-04-11T19:48:42.595Z,5.07
2023-04-11T19:51:12.612Z,7.57
2023-04-11T19:53:40.610Z,8.57
2023-04-11T19:56:10.767Z,12.90
2023-04-11T19:58:39.889Z,10.80
2023-04-11T20:01:08.301Z,7.93
2023-04-11T20:03:38.126Z,5.70
2023-04-11T20:06:07.449Z,5.27
2023-04-11T20:08:37.091Z,5.03
2023-04-11T20:11:05.577Z,3.80
2023-04-11T20:13:36.520Z,8.40
2023-04-11T20:16:09.258Z,7.70
2023-04-11T20:18:38.502Z,7.70
2023-04-11T20:21:07.718Z,6.17
2023-04-11T20:23:37.009Z,4.73
2023-04-11T20:26:05.113Z,5.87
2023-04-11T20:28:33.099Z,5.10
2023-04-11T20:31:02.776Z,4.07
2023-04-11T20:33:30.709Z,5.97
2023-04-11T20:36:00.294Z,4.10
2023-04-11T20:38:28.407Z,5.33
2023-04-11T20:40:56.416Z,3.20
2023-04-11T20:43:26.491Z,4.87
2023-04-11T20:45:55.813Z,6.53
2023-04-11T20:48:25.838Z,5.37
2023-04-11T20:50:56.030Z,5.77
2023-04-11T20:53:27.416Z,4.77
2023-04-11T20:55:55.841Z,4.23
2023-04-11T20:58:23.742Z,6.73
2023-04-11T21:00:51.679Z,5.50
2023-04-11T21:03:19.656Z,3.50
2023-04-11T21:05:48.204Z,5.23
2023-04-11T21:08:16.414Z,3.97
2023-04-11T21:10:45.698Z,3.90
2023-04-11T21:13:13.718Z,4.10
2023-04-11T21:15:42.516Z,3.37
2023-04-11T21:18:10.630Z,3.70
2023-04-11T21:20:40.777Z,4.83
2023-04-11T21:23:08.782Z,4.70
2023-04-11T21:25:37.997Z,3.73
2023-04-11T21:28:07.224Z,5.23
2023-04-11T21:30:35.177Z,5.37
2023-04-11T21:33:03.180Z,6.63
2023-04-11T21:35:31.303Z,4.13
2023-04-11T21:37:59.338Z,2.67
2023-04-11T21:40:27.214Z,6.53
2023-04-11T21:42:55.971Z,1.93
2023-04-11T21:45:25.741Z,3.10
2023-04-11T21:47:53.713Z,3.67
2023-04-11T21:50:21.692Z,4.30
2023-04-11T21:52:49.658Z,4.00
2023-04-11T21:55:17.610Z,3.87
2023-04-11T21:57:45.625Z,3.77
2023-04-11T22:00:14.543Z,3.33
2023-04-11T22:02:43.999Z,4.70
2023-04-11T22:05:12.612Z,4.77
2023-04-11T22:07:47.075Z,2.50
2023-04-11T22:10:15.230Z,5.20
2023-04-11T22:12:45.616Z,6.13
2023-04-11T22:15:14.148Z,6.83
2023-04-11T22:17:46.109Z,6.47
2023-04-11T22:20:14.379Z,2.30
2023-04-11T22:22:42.380Z,2.30
2023-04-11T22:25:11.530Z,6.67
2023-04-11T22:27:39.657Z,5.33
2023-04-11T22:30:11.071Z,4.23
2023-04-11T22:32:39.019Z,4.80
2023-04-11T22:35:10.313Z,4.27
2023-04-11T22:37:38.209Z,3.73
2023-04-11T22:40:08.322Z,2.73
2023-04-11T22:42:36.839Z,5.87
2023-04-11T22:45:06.072Z,2.20
2023-04-11T22:47:37.965Z,2.90
2023-04-11T22:50:09.331Z,3.93
2023-04-11T22:52:37.688Z,3.17
2023-04-11T22:55:07.297Z,1.80
2023-04-11T22:57:38.059Z,4.63
2023-04-11T23:00:08.994Z,3.33
2023-04-11T23:02:40.006Z,4.17
2023-04-11T23:05:10.999Z,2.87
2023-04-11T23:07:39.233Z,4.23
2023-04-11T23:10:11.907Z,2.27
2023-04-11T23:12:40.137Z,4.87
2023-04-11T23:15:09.792Z,2.33
2023-04-11T23:17:38.630Z,1.70
2023-04-11T23:20:13.406Z,2.70
2023-04-11T23:22:43.818Z,5.53
2023-04-11T23:25:12.623Z,2.60
2023-04-11T23:27:40.702Z,3.17
2023-04-11T23:30:11.716Z,3.80
2023-04-11T23:32:39.709Z,3.53
2023-04-11T23:35:10.671Z,3.40
2023-04-11T23:37:38.713Z,3.27
2023-04-11T23:40:12.296Z,4.17
2023-04-11T23:42:41.446Z,2.57
2023-04-11T23:45:11.690Z,2.50
2023-04-11T23:47:39.731Z,4.17
2023-04-11T23:50:10.545Z,4.17
2023-04-11T23:52:39.638Z,1.67
2023-04-11T23:55:09.835Z,5.13
2023-04-11T23:57:37.749Z,5.43
